Have a Safe July 4th! 

Flight Track Log - Related Links

Times and Time Zones

All times are in EST time to prevent confusion due to time zone crossing. See the OPT332 flight status page for this flight to view local times or setup timezone preferences in your user account.

Time Position Orientation Groundspeed Altitude Reporting Facility
EST Latitude Longitude Course Direction KTS MPH feet Rate Location/Type
Tue 11:41:29 AM 36.0972 -115.1558 288° West 137 158 3,600  Level Los Angeles Center
Tue 11:42:29 AM 36.1100 -115.2050 288° West 196 226 7,600 3,375 Climbing Los Angeles Center
Tue 11:42:33 AM 36.1169 -115.2053 358° North 205 236 7,200 4,182 Descending Los Angeles Center
Tue 11:43:35 AM 36.0958 -115.2814 251° West 217 250 12,200 5,048 Climbing Los Angeles Center
Tue 11:43:36 AM 36.0933 -115.2875 243° Southwest 228 262 12,500 3,290 Climbing Los Angeles Center
Tue 11:44:37 AM 36.0517 -115.3572 234° Southwest 266 306 15,600 3,045 Climbing Los Angeles Center
Tue 11:44:43 AM 36.0497 -115.3656 254° West 268 308 15,900 2,710 Climbing Los Angeles Center
Tue 11:45:39 AM 36.0289 -115.4444 252° West 274 315 18,400 1,831 Climbing Los Angeles Center
Tue 11:46:41 AM 35.9964 -115.5733 253° West 352 405 19,500 2,226 Climbing Los Angeles Center
Tue 11:47:43 AM 35.9828 -115.6969 262° West 364 419 23,000 3,387 Climbing Los Angeles Center
Tue 11:48:45 AM 36.0322 -115.7869 304° West 322 371 26,500 3,048 Climbing Los Angeles Center
Tue 11:49:47 AM 36.0806 -115.8733 305° West 308 354 29,300 3,145 Climbing Los Angeles Center
Tue 11:50:49 AM 36.1258 -115.9553 304° West 293 337 33,000 2,468 Climbing Los Angeles Center
Tue 11:51:51 AM 36.1867 -116.0114 323° Northwest 280 322 34,400 1,403 Climbing Los Angeles Center
Tue 11:52:53 AM 36.2503 -116.0708 323° Northwest 283 326 35,900 1,645 Climbing Los Angeles Center
Tue 11:53:55 AM 36.3306 -116.1478 322° Northwest 302 348 37,800 1,790 Climbing Los Angeles Center
Tue 11:54:57 AM 36.3964 -116.2106 322° Northwest 300 345 39,600 1,210 Climbing Los Angeles Center
Tue 11:55:59 AM 36.4558 -116.2650 324° Northwest 293 337 40,300 726 Climbing Los Angeles Center
Tue 11:57:01 AM 36.5242 -116.3297 323° Northwest 302 348 41,100 1,016 Climbing Los Angeles Center
Tue 11:58:03 AM 36.5744 -116.4256 303° West 308 354 42,400 919 Climbing Los Angeles Center
Tue 11:59:05 AM 36.6181 -116.5175 301° West 305 351 43,000 290 Climbing Los Angeles Center
Tue 12:00:07 PM 36.6714 -116.6356 299° West 318 366 43,000  Level Los Angeles Center
Tue 12:01:09 PM 36.7181 -116.7406 299° West 335 386 43,000  Level Los Angeles Center
Tue 12:02:11 PM 36.7661 -116.8478 299° West 347 399 43,000  Level Los Angeles Center
Tue 12:03:13 PM 36.8153 -116.9586 299° West 357 411 43,000  Level Los Angeles Center
Tue 12:04:15 PM 36.8658 -117.0711 299° West 365 420 43,000  Level Los Angeles Center
Tue 12:05:17 PM 36.9164 -117.1864 299° West 372 428 43,000  Level Los Angeles Center
Tue 12:06:19 PM 36.9672 -117.3017 299° West 375 432 43,000  Level Los Angeles Center
Tue 12:07:21 PM 37.0186 -117.4167 299° West 377 434 43,000  Level Los Angeles Center
Tue 12:08:23 PM 37.0792 -117.5558 299° West 378 435 43,000  Level Los Angeles Center
Tue 12:09:25 PM 37.1294 -117.6686 299° West 374 430 43,000  Level Los Angeles Center
Tue 12:10:27 PM 37.1789 -117.7806 299° West 371 427 43,000  Level Los Angeles Center
Tue 12:11:29 PM 37.2269 -117.8922 298° West 366 421 43,000 -532 Level Los Angeles Center
Tue 12:12:31 PM 37.2756 -118.0028 299° West 362 417 41,900 -1,258 Descending Los Angeles Center
Tue 12:13:33 PM 37.3258 -118.1153 299° West 365 420 40,400 -1,452 Descending Los Angeles Center
Tue 12:14:35 PM 37.3725 -118.2231 299° West 362 417 38,900 -1,597 Descending Los Angeles Center
Tue 12:15:37 PM 37.4308 -118.3528 300° West 360 414 37,100 -1,597 Descending Los Angeles Center
Tue 12:16:39 PM 37.4836 -118.4769 298° West 376 433 35,600 -1,452 Descending Los Angeles Center
Tue 12:17:41 PM 37.5333 -118.5997 297° West 383 441 34,100 -1,452 Descending Los Angeles Center
Tue 12:18:43 PM 37.5753 -118.7011 298° West 339 390 32,600 -1,452 Descending Los Angeles Center
Tue 12:19:45 PM 37.6189 -118.8094 297° West 342 394 31,100 -1,091 Descending Los Angeles Center
Tue 12:21:06 PM 37.6881 -118.9758 298° West 368 423 30,000 -465 Descending Oakland Center
Tue 12:22:07 PM 37.7358 -119.0903 298° West 369 425 30,000  Level Oakland Center
Tue 12:23:08 PM 37.7822 -119.2019 298° West 362 417 30,000 -341 Level Oakland Center
Tue 12:24:10 PM 37.8297 -119.3131 298° West 360 414 29,300 -1,073 Descending Oakland Center
Tue 12:25:11 PM 37.8744 -119.4256 297° West 358 412 27,800 -1,475 Descending Oakland Center
Tue 12:26:12 PM 37.9206 -119.5342 298° West 353 406 26,300 -1,463 Descending Oakland Center
Tue 12:27:14 PM 37.9661 -119.6478 297° West 358 412 24,800 -1,463 Descending Oakland Center
Tue 12:28:15 PM 38.0131 -119.7614 298° West 363 418 23,300 -1,475 Descending Oakland Center
Tue 12:29:16 PM 38.0600 -119.8742 298° West 362 417 21,800 -1,623 Descending Oakland Center
Tue 12:30:17 PM 38.1128 -120.0061 297° West 350 403 20,000 -1,672 Descending Oakland Center
Tue 12:31:18 PM 38.1556 -120.1119 297° West 339 390 18,400 -1,415 Descending Oakland Center
Tue 12:32:20 PM 38.1986 -120.2169 298° West 335 386 17,100 -1,366 Descending Oakland Center
Tue 12:33:21 PM 38.2400 -120.3231 296° West 335 386 15,600 -1,475 Descending Oakland Center
Tue 12:34:22 PM 38.2828 -120.4267 298° West 331 381 14,100 -1,623 Descending Oakland Center
Tue 12:35:23 PM 38.3225 -120.5242 297° West 315 362 12,300 -1,854 Descending Oakland Center
Tue 12:36:25 PM 38.3581 -120.6142 297° West 288 331 10,300 -1,951 Descending Oakland Center
Tue 12:37:26 PM 38.3925 -120.7017 297° West 277 319 8,300 -1,131 Descending Oakland Center
Tue 12:38:27 PM 38.4267 -120.7864 297° West 272 313 8,000 -148 Descending Oakland Center
Tue 12:39:28 PM 38.4597 -120.8714 296° West 268 308 8,000 -689 Level Oakland Center
Tue 12:40:29 PM 38.4983 -120.9689 297° West 258 297 6,600 -1,415 Descending Oakland Center
Tue 12:41:31 PM 38.5294 -121.0486 297° West 253 291 5,100 -1,268 Descending Oakland Center
Tue 12:42:32 PM 38.5603 -121.1269 297° West 250 288 4,000 -541 Descending Oakland Center
Tue 12:43:33 PM 38.5869 -121.1947 297° West 232 267 4,000 -148 Level Oakland Center
Tue 12:44:34 PM 38.6156 -121.2711 296° West 219 252 3,700 -295 Descending Oakland Center

Login

Don't have an account? Register now (free) for customized features, flight alerts, and more!